Time;durP1;ratioP1;P1;durP2;ratioP2;P2;SDS_P1;SDS_P2;PMS_P1;PMS_P2;Temp;Humidity;BMP_temperature;BMP_pressure;BME280_temperature;BME280_humidity;BME280_pressure;Samples;Min_cycle;Max_cycle;Signal;HPM_P1;HPM_P2
2022/12/21 00:02:04;;;;;;;33.47;11.75;;;6.30;99.90;;;;;;4961632;28;20413;-77
2022/12/21 00:04:30;;;;;;;56.88;15.60;;;6.20;99.90;;;;;;4962145;28;20046;-77
2022/12/21 00:06:56;;;;;;;38.53;12.80;;;6.10;99.90;;;;;;4962699;28;20584;-77
2022/12/21 00:09:22;;;;;;;15.48;7.55;;;6.10;99.90;;;;;;4962184;28;20646;-77
2022/12/21 00:11:47;;;;;;;48.15;15.93;;;6.00;99.90;;;;;;4963170;28;20061;-77
2022/12/21 00:14:13;;;;;;;34.40;12.40;;;6.00;99.90;;;;;;4960461;28;20601;-77
2022/12/21 00:16:41;;;;;;;32.40;12.10;;;5.90;99.90;;;;;;4962824;28;20049;-77
2022/12/21 00:19:06;;;;;;;64.32;17.30;;;5.80;99.90;;;;;;4962473;28;20043;-77
2022/12/21 00:21:36;;;;;;;31.60;10.80;;;5.80;99.90;;;;;;4961531;28;20049;-77
2022/12/21 00:24:02;;;;;;;30.88;8.18;;;5.70;99.90;;;;;;4962076;28;20426;-77
2022/12/21 00:26:32;;;;;;;41.60;13.13;;;5.70;99.90;;;;;;4957271;28;20043;-77
2022/12/21 00:28:58;;;;;;;45.10;14.60;;;5.60;99.90;;;;;;4942052;28;20264;-77
2022/12/21 00:31:31;;;;;;;17.48;5.57;;;5.50;99.90;;;;;;4943784;28;20040;-77
2022/12/21 00:33:57;;;;;;;34.45;11.15;;;5.50;99.90;;;;;;4957937;28;20055;-77
2022/12/21 00:36:25;;;;;;;32.13;10.90;;;5.40;99.90;;;;;;4962744;28;20134;-77
2022/12/21 00:38:51;;;;;;;29.85;10.05;;;5.40;99.90;;;;;;4960870;28;20038;-77
2022/12/21 00:41:20;;;;;;;45.97;14.15;;;5.40;99.90;;;;;;4963313;28;20047;-77
2022/12/21 00:43:46;;;;;;;43.15;13.57;;;5.40;99.90;;;;;;4962039;28;20035;-77
2022/12/21 00:46:18;;;;;;;47.08;13.32;;;5.30;99.90;;;;;;4961185;28;20035;-77
2022/12/21 00:48:44;;;;;;;53.80;10.70;;;5.40;99.90;;;;;;4961079;28;20239;-77
2022/12/21 00:51:13;;;;;;;68.57;18.27;;;5.30;99.90;;;;;;4962517;28;20418;-77
2022/12/21 00:53:39;;;;;;;34.55;10.25;;;5.20;99.90;;;;;;4962492;28;20051;-77
2022/12/21 00:56:07;;;;;;;18.50;6.72;;;5.20;99.90;;;;;;4960599;28;20050;-77
2022/12/21 00:58:34;;;;;;;25.10;9.45;;;5.10;99.90;;;;;;4961533;28;20046;-77
2022/12/21 01:01:04;;;;;;;56.47;14.85;;;5.00;99.90;;;;;;4961863;28;20057;-77
2022/12/21 01:03:30;;;;;;;23.83;8.65;;;4.90;99.90;;;;;;4964835;28;20043;-77
2022/12/21 01:05:56;;;;;;;57.67;16.50;;;4.90;99.90;;;;;;4966395;28;20540;-77
2022/12/21 01:08:23;;;;;;;54.97;14.45;;;4.80;99.90;;;;;;4965434;28;20074;-77
2022/12/21 01:10:49;;;;;;;56.30;16.33;;;4.70;99.90;;;;;;4965819;28;20336;-77
2022/12/21 01:13:16;;;;;;;81.45;21.63;;;4.60;99.90;;;;;;4963994;28;20058;-77
2022/12/21 01:15:46;;;;;;;75.88;19.00;;;4.60;99.90;;;;;;4965824;28;20053;-77
2022/12/21 01:18:14;;;;;;;45.70;13.27;;;4.50;99.90;;;;;;4965509;28;20085;-77
2022/12/21 01:20:41;;;;;;;59.13;14.57;;;4.50;99.90;;;;;;4965889;28;20034;-77
2022/12/21 01:23:07;;;;;;;30.58;9.75;;;4.50;99.90;;;;;;4965485;28;20074;-77
2022/12/21 01:25:33;;;;;;;65.18;16.13;;;4.50;99.90;;;;;;4965788;28;20035;-77
2022/12/21 01:27:59;;;;;;;15.95;5.47;;;4.40;99.90;;;;;;4962481;28;20046;-77
2022/12/21 01:30:25;;;;;;;55.60;15.32;;;4.50;99.90;;;;;;4966015;28;20142;-77
2022/12/21 01:32:51;;;;;;;51.83;13.30;;;4.40;99.90;;;;;;4965433;28;20083;-77
2022/12/21 01:35:17;;;;;;;104.20;23.15;;;4.40;99.90;;;;;;4965607;28;20473;-77
2022/12/21 01:37:42;;;;;;;40.08;13.95;;;4.30;99.90;;;;;;4964225;28;20047;-77
2022/12/21 01:40:10;;;;;;;45.10;16.00;;;4.30;99.90;;;;;;4963692;28;20501;-77
2022/12/21 01:42:36;;;;;;;23.85;9.52;;;4.30;99.90;;;;;;4964909;28;20512;-77
2022/12/21 01:45:03;;;;;;;40.17;15.57;;;4.20;99.90;;;;;;4979199;28;20109;-77
2022/12/21 01:47:59;;;;;;;22.73;7.72;;;4.20;99.90;;;;;;4965314;28;20043;-77
2022/12/21 01:50:27;;;;;;;25.00;9.48;;;4.10;99.90;;;;;;4957416;28;20117;-77
2022/12/21 01:52:57;;;;;;;51.33;14.73;;;4.10;99.90;;;;;;4964411;28;20130;-77
2022/12/21 01:55:24;;;;;;;44.13;13.80;;;4.10;99.90;;;;;;4965291;28;20043;-77
2022/12/21 01:57:50;;;;;;;15.15;5.53;;;4.10;99.90;;;;;;4944364;29;20051;-77
2022/12/21 02:00:15;;;;;;;38.05;10.52;;;4.10;99.90;;;;;;4945160;29;20066;-77
2022/12/21 02:02:53;;;;;;;62.08;17.50;;;4.20;99.90;;;;;;4945862;28;20102;-77
2022/12/21 02:05:33;;;;;;;42.88;11.27;;;4.10;99.90;;;;;;4945885;28;20100;-77
2022/12/21 02:08:01;;;;;;;23.00;8.25;;;4.20;99.90;;;;;;4945503;28;20054;-77
2022/12/21 02:10:27;;;;;;;14.30;6.47;;;4.20;99.90;;;;;;4945284;28;20047;-76
2022/12/21 02:13:00;;;;;;;72.75;22.77;;;4.20;99.90;;;;;;4958901;28;20047;-77
2022/12/21 02:15:41;;;;;;;20.70;8.00;;;4.20;99.90;;;;;;4964450;28;20035;-77
2022/12/21 02:18:35;;;;;;;68.85;19.20;;;4.10;99.90;;;;;;4964144;28;20039;-77
2022/12/21 02:21:21;;;;;;;30.05;10.90;;;4.10;99.90;;;;;;4941911;28;20132;-76
2022/12/21 02:24:06;;;;;;;72.63;22.13;;;4.10;99.90;;;;;;4965192;28;20035;-77
2022/12/21 02:27:02;;;;;;;29.95;8.63;;;4.10;99.90;;;;;;4958451;28;20058;-77
2022/12/21 02:29:33;;;;;;;57.08;18.08;;;4.10;99.90;;;;;;4958677;28;20047;-77
2022/12/21 02:32:10;;;;;;;30.67;10.85;;;4.00;99.90;;;;;;4964382;28;20051;-77
2022/12/21 02:35:04;;;;;;;24.95;8.88;;;4.00;99.90;;;;;;4962339;28;20059;-77
2022/12/21 02:37:39;;;;;;;30.35;11.13;;;4.00;99.90;;;;;;4962398;28;20065;-77
2022/12/21 02:40:08;;;;;;;21.85;9.98;;;4.00;99.90;;;;;;4964077;28;20043;-77
2022/12/21 02:45:54;;;;;;;23.98;9.43;;;4.00;99.90;;;;;;4962998;28;20076;-77
2022/12/21 02:48:23;;;;;;;15.70;7.85;;;3.90;99.90;;;;;;4963155;28;20050;-77
2022/12/21 02:50:53;;;;;;;15.70;6.93;;;4.00;99.90;;;;;;4963583;28;20039;-77
2022/12/21 02:53:28;;;;;;;38.25;11.77;;;3.90;99.90;;;;;;4964000;28;20100;-77
2022/12/21 02:55:54;;;;;;;36.55;13.23;;;4.00;99.90;;;;;;4963609;28;20121;-77
2022/12/21 02:58:22;;;;;;;34.40;11.55;;;3.90;99.90;;;;;;4961981;28;20531;-77
2022/12/21 03:00:50;;;;;;;44.53;13.05;;;3.90;99.90;;;;;;4963410;28;20123;-77
2022/12/21 03:03:50;;;;;;;17.48;8.35;;;3.90;99.90;;;;;;4963328;28;20082;-76
2022/12/21 03:06:51;;;;;;;75.30;21.55;;;3.90;99.90;;;;;;4962519;28;20055;-77
2022/12/21 03:09:38;;;;;;;41.92;14.48;;;3.90;99.90;;;;;;4962788;28;20525;-77
2022/12/21 03:12:28;;;;;;;37.65;15.48;;;3.90;99.90;;;;;;4961832;28;20359;-76
2022/12/21 03:15:18;;;;;;;36.55;12.85;;;3.90;99.90;;;;;;4961447;28;20050;-76
2022/12/21 03:17:59;;;;;;;48.03;10.45;;;3.90;99.90;;;;;;4963958;28;20050;-76
2022/12/21 03:20:38;;;;;;;15.05;8.50;;;3.90;99.90;;;;;;4963571;28;20057;-77
2022/12/21 03:23:23;;;;;;;11.00;7.63;;;3.90;99.90;;;;;;4963016;28;20047;-77
2022/12/21 03:26:08;;;;;;;22.25;9.40;;;3.90;99.90;;;;;;4962585;28;20105;-77
2022/12/21 03:28:38;;;;;;;17.40;10.13;;;3.90;99.90;;;;;;4962559;28;20047;-77
2022/12/21 03:31:09;;;;;;;32.03;10.20;;;3.90;99.90;;;;;;4961916;28;20045;-77
2022/12/21 03:33:41;;;;;;;16.70;8.80;;;3.90;99.90;;;;;;4962003;28;20409;-76
2022/12/21 03:36:19;;;;;;;28.48;12.00;;;3.90;99.90;;;;;;4963311;28;20742;-76
2022/12/21 03:38:53;;;;;;;40.67;12.43;;;3.90;99.90;;;;;;4963439;28;20086;-76
2022/12/21 03:41:36;;;;;;;23.00;10.32;;;3.90;99.90;;;;;;4963515;28;20061;-76
2022/12/21 03:44:06;;;;;;;24.63;9.57;;;3.80;99.90;;;;;;4961797;28;20486;-76
2022/12/21 03:46:46;;;;;;;28.23;11.48;;;3.90;99.90;;;;;;4963117;28;20053;-76
2022/12/21 03:49:21;;;;;;;34.78;11.93;;;3.90;99.90;;;;;;4962596;28;20494;-76
2022/12/21 03:51:54;;;;;;;24.60;9.48;;;3.90;99.90;;;;;;4963280;28;20038;-76
2022/12/21 03:54:31;;;;;;;;;;;3.90;99.90;;;;;;4962470;28;20752;-77
2022/12/21 03:56:57;;;;;;;13.32;6.35;;;3.90;99.90;;;;;;4962871;28;19929;-77
2022/12/21 03:59:24;;;;;;;14.32;6.25;;;3.90;99.90;;;;;;4961984;28;20379;-77
2022/12/21 04:02:03;;;;;;;10.05;5.75;;;3.90;99.90;;;;;;4962508;28;20085;-77
2022/12/21 04:04:46;;;;;;;16.15;7.00;;;3.90;99.90;;;;;;4962877;28;20549;-77
2022/12/21 04:07:13;;;;;;;;;;;3.90;99.90;;;;;;4963603;28;20500;-77
2022/12/21 04:09:39;;;;;;;26.63;8.80;;;3.90;99.90;;;;;;4961186;28;19922;-77
2022/12/21 04:14:50;;;;;;;12.02;5.10;;;4.00;99.90;;;;;;4961268;28;20101;-77
2022/12/21 04:17:16;;;;;;;20.65;7.70;;;4.00;99.90;;;;;;4963540;28;20042;-77
2022/12/21 04:20:02;;;;;;;30.67;8.60;;;4.00;99.90;;;;;;4962686;28;20042;-77
2022/12/21 04:28:08;;;;;;;22.77;6.20;;;4.00;99.90;;;;;;4960483;28;20049;-77
2022/12/21 04:30:42;;;;;;;9.13;6.35;;;4.00;99.90;;;;;;4962707;28;20421;-76
2022/12/21 04:33:10;;;;;;;13.05;5.80;;;4.00;99.90;;;;;;4961135;28;20109;-77
2022/12/21 04:35:36;;;;;;;11.98;4.97;;;4.00;99.90;;;;;;4962078;28;20054;-76
2022/12/21 04:38:02;;;;;;;15.98;6.30;;;4.00;99.90;;;;;;4964138;28;20043;-76
2022/12/21 04:40:28;;;;;;;12.02;5.75;;;4.00;99.90;;;;;;4965644;28;20070;-76
2022/12/21 04:42:54;;;;;;;15.75;6.55;;;4.00;99.90;;;;;;4964952;28;20058;-77
2022/12/21 04:45:20;;;;;;;21.33;8.07;;;3.90;99.90;;;;;;4966449;28;20037;-77
2022/12/21 04:47:46;;;;;;;21.60;7.20;;;3.90;99.90;;;;;;4966743;28;20046;-76
2022/12/21 04:50:11;;;;;;;20.10;9.05;;;3.90;99.90;;;;;;4965901;28;20054;-76
2022/12/21 04:52:37;;;;;;;13.10;6.47;;;3.90;99.90;;;;;;4966324;28;20051;-76
2022/12/21 04:55:03;;;;;;;10.15;4.43;;;3.90;99.90;;;;;;4964611;28;20042;-76
2022/12/21 04:57:30;;;;;;;27.95;8.80;;;3.90;99.90;;;;;;4965384;28;20082;-77
2022/12/21 04:59:55;;;;;;;36.78;9.27;;;3.90;99.90;;;;;;4965992;28;20050;-77
2022/12/21 05:02:21;;;;;;;35.63;9.82;;;3.90;99.90;;;;;;4966138;28;20047;-77
2022/12/21 05:04:47;;;;;;;12.35;6.05;;;3.90;99.90;;;;;;4966267;28;20486;-76
2022/12/21 05:07:12;;;;;;;25.15;9.27;;;3.90;99.90;;;;;;4964406;28;20083;-77
2022/12/21 05:09:38;;;;;;;21.95;6.50;;;3.90;99.90;;;;;;4964808;28;20508;-76
2022/12/21 05:12:04;;;;;;;32.10;10.60;;;3.90;99.90;;;;;;4963925;28;20537;-77
2022/12/21 05:14:29;;;;;;;33.42;11.88;;;3.90;99.90;;;;;;4964652;28;20114;-77
2022/12/21 05:16:55;;;;;;;27.35;9.70;;;4.00;99.90;;;;;;4965636;28;20406;-77
2022/12/21 05:19:20;;;;;;;13.32;7.78;;;4.00;99.90;;;;;;4965484;28;20062;-77
2022/12/21 05:21:46;;;;;;;23.90;8.07;;;3.90;99.90;;;;;;4966260;28;20047;-76
2022/12/21 05:24:12;;;;;;;34.53;10.55;;;3.90;99.90;;;;;;4965618;28;20053;-76
2022/12/21 05:26:38;;;;;;;39.28;9.75;;;3.90;99.90;;;;;;4957661;28;20039;-76
2022/12/21 05:29:04;;;;;;;28.15;10.60;;;3.90;99.90;;;;;;4944085;29;20058;-76
2022/12/21 05:31:30;;;;;;;59.05;17.58;;;3.90;99.90;;;;;;4961784;28;20049;-77
2022/12/21 05:33:55;;;;;;;24.38;8.38;;;3.90;99.90;;;;;;4963669;28;20047;-76
2022/12/21 05:36:21;;;;;;;12.75;7.18;;;3.90;99.90;;;;;;4964580;28;20462;-76
2022/12/21 05:38:47;;;;;;;11.30;6.30;;;3.90;99.90;;;;;;4964300;28;20042;-76
2022/12/21 05:41:14;;;;;;;38.30;12.80;;;3.80;99.90;;;;;;4965180;28;20070;-77
2022/12/21 05:43:40;;;;;;;27.67;11.77;;;3.90;99.90;;;;;;4964973;28;20050;-76
2022/12/21 05:46:08;;;;;;;93.95;21.60;;;3.80;99.90;;;;;;4963504;28;20074;-76
2022/12/21 05:48:34;;;;;;;80.53;17.10;;;3.90;99.90;;;;;;4964731;28;20086;-77
2022/12/21 05:51:09;;;;;;;46.97;13.57;;;3.90;99.90;;;;;;4963266;28;20090;-76
2022/12/21 05:53:36;;;;;;;94.28;21.10;;;3.90;99.90;;;;;;4965206;28;20528;-76
2022/12/21 05:56:01;;;;;;;24.25;8.40;;;3.90;99.90;;;;;;4964621;28;20478;-77
2022/12/21 05:58:27;;;;;;;86.00;18.98;;;3.90;99.90;;;;;;4962992;28;20097;-76
2022/12/21 06:00:53;;;;;;;37.30;12.05;;;3.90;99.90;;;;;;4964319;28;20039;-77
2022/12/21 06:03:18;;;;;;;66.60;9.48;;;3.90;99.90;;;;;;4965399;28;20567;-76
2022/12/21 06:05:44;;;;;;;45.67;11.27;;;3.90;99.90;;;;;;4965179;28;20184;-76
2022/12/21 06:08:09;;;;;;;40.08;12.70;;;3.90;99.90;;;;;;4964620;28;20517;-76
2022/12/21 06:10:36;;;;;;;25.38;9.68;;;3.90;99.90;;;;;;4963140;28;20334;-76
2022/12/21 06:13:03;;;;;;;21.58;8.88;;;3.90;99.90;;;;;;4964401;28;20055;-77
2022/12/21 06:15:28;;;;;;;27.20;8.15;;;3.90;99.90;;;;;;4965976;28;20109;-77
2022/12/21 06:17:54;;;;;;;14.20;6.75;;;3.90;99.90;;;;;;4965258;28;20043;-76
2022/12/21 06:20:19;;;;;;;24.30;9.45;;;3.90;99.90;;;;;;4964595;28;20034;-77
2022/12/21 06:22:45;;;;;;;21.95;7.65;;;3.90;99.90;;;;;;4965313;28;20074;-77
2022/12/21 06:25:11;;;;;;;18.13;7.82;;;3.90;99.90;;;;;;4963064;28;20086;-76
2022/12/21 06:27:36;;;;;;;23.73;10.23;;;3.90;99.90;;;;;;4950050;28;20457;-76
2022/12/21 06:30:03;;;;;;;11.80;7.15;;;3.90;99.90;;;;;;4960057;28;20042;-79
2022/12/21 06:32:29;;;;;;;36.45;11.05;;;3.90;99.90;;;;;;4962267;28;20113;-78
2022/12/21 06:34:57;;;;;;;23.73;10.00;;;3.90;99.90;;;;;;4964432;28;20051;-78
2022/12/21 06:37:22;;;;;;;17.25;7.38;;;3.90;99.90;;;;;;4949428;28;20058;-78
2022/12/21 06:39:48;;;;;;;26.40;9.80;;;3.90;99.90;;;;;;4951698;28;20031;-78
2022/12/21 06:42:13;;;;;;;25.88;8.43;;;3.90;99.90;;;;;;4957993;28;20043;-78
2022/12/21 06:44:39;;;;;;;33.00;13.07;;;3.90;99.90;;;;;;4961996;28;20109;-78
2022/12/21 06:47:05;;;;;;;28.92;10.70;;;3.90;99.90;;;;;;4964347;28;20039;-78
2022/12/21 06:49:30;;;;;;;36.88;14.32;;;4.00;99.90;;;;;;4965185;28;20079;-79
2022/12/21 06:51:56;;;;;;;43.83;14.30;;;4.00;99.90;;;;;;4963992;28;20498;-80
2022/12/21 06:54:21;;;;;;;26.08;10.75;;;4.00;99.90;;;;;;4962893;28;20079;-80
2022/12/21 06:56:47;;;;;;;20.63;8.82;;;4.00;99.90;;;;;;4964530;28;20492;-80
2022/12/21 06:59:13;;;;;;;64.43;15.10;;;4.00;99.90;;;;;;4959805;28;20042;-83
2022/12/21 07:01:39;;;;;;;58.50;14.43;;;4.00;99.90;;;;;;4969933;28;20074;-81
2022/12/21 07:04:04;;;;;;;73.18;18.92;;;4.00;99.90;;;;;;4963903;28;20489;-80
2022/12/21 07:06:31;;;;;;;55.05;10.48;;;4.00;99.90;;;;;;4961737;28;20047;-80
2022/12/21 07:08:58;;;;;;;25.52;11.15;;;4.00;99.90;;;;;;4964822;28;20035;-78
2022/12/21 07:11:27;;;;;;;19.80;8.13;;;4.10;99.90;;;;;;4964681;28;20098;-78
2022/12/21 07:13:53;;;;;;;14.13;8.55;;;4.10;99.90;;;;;;4962794;28;20057;-77
2022/12/21 07:16:19;;;;;;;10.55;7.35;;;4.10;99.90;;;;;;4965002;28;20113;-78
2022/12/21 07:18:46;;;;;;;44.38;11.52;;;4.10;99.90;;;;;;4959492;28;20051;-78
2022/12/21 07:21:14;;;;;;;36.72;14.70;;;4.20;99.90;;;;;;4962997;28;20059;-78
2022/12/21 07:23:40;;;;;;;52.47;13.38;;;4.20;99.90;;;;;;4963251;28;20489;-78
2022/12/21 07:26:08;;;;;;;17.08;8.98;;;4.20;99.90;;;;;;4959871;28;20130;-78
2022/12/21 07:28:34;;;;;;;18.63;8.80;;;4.20;99.90;;;;;;4962701;28;20042;-81
2022/12/21 07:31:05;;;;;;;32.45;8.38;;;4.30;99.90;;;;;;4963556;28;20035;-78
2022/12/21 07:33:31;;;;;;;24.92;9.15;;;4.30;99.90;;;;;;4957844;28;20070;-78
2022/12/21 07:36:02;;;;;;;15.95;8.57;;;4.30;99.90;;;;;;4951510;28;20039;-79
2022/12/21 07:38:28;;;;;;;30.70;9.43;;;4.30;99.90;;;;;;4944440;28;20052;-77
2022/12/21 07:41:02;;;;;;;24.40;13.23;;;4.40;99.90;;;;;;4949256;28;20051;-78
2022/12/21 07:43:29;;;;;;;39.67;10.25;;;4.30;99.90;;;;;;4962131;28;20039;-80
2022/12/21 07:45:55;;;;;;;16.42;8.85;;;4.30;99.90;;;;;;4953577;28;20415;-77
2022/12/21 07:48:21;;;;;;;23.25;11.82;;;4.40;99.90;;;;;;4953377;28;20109;-77
2022/12/21 07:50:49;;;;;;;17.00;11.63;;;4.40;99.90;;;;;;4951609;28;20264;-77
2022/12/21 07:53:15;;;;;;;18.73;10.85;;;4.40;99.90;;;;;;4963987;28;20077;-77
2022/12/21 07:55:41;;;;;;;25.48;13.35;;;4.40;99.90;;;;;;4962400;28;20109;-78
2022/12/21 07:58:07;;;;;;;16.27;12.25;;;4.40;99.90;;;;;;4959938;28;20047;-78
2022/12/21 08:00:32;;;;;;;20.40;11.50;;;4.50;99.90;;;;;;4960441;28;20054;-76
2022/12/21 08:02:58;;;;;;;24.83;13.23;;;4.40;99.90;;;;;;4959565;28;20039;-78
2022/12/21 08:05:24;;;;;;;20.45;12.15;;;4.40;99.90;;;;;;4958224;28;20397;-77
2022/12/21 08:07:49;;;;;;;22.25;12.57;;;4.50;99.90;;;;;;4962955;28;20035;-77
2022/12/21 08:10:16;;;;;;;18.80;13.65;;;4.50;99.90;;;;;;4959563;28;20046;-77
2022/12/21 08:12:41;;;;;;;33.28;15.07;;;4.50;99.90;;;;;;4960552;28;20047;-77
2022/12/21 08:15:07;;;;;;;25.17;16.92;;;4.50;99.90;;;;;;4953299;28;20529;-78
2022/12/21 08:17:33;;;;;;;26.17;15.63;;;4.50;99.90;;;;;;4976949;28;20386;-78
2022/12/21 08:19:59;;;;;;;30.40;19.10;;;4.50;99.90;;;;;;4963375;28;20121;-77
2022/12/21 08:22:25;;;;;;;57.08;26.08;;;4.50;99.90;;;;;;4953107;28;20043;-78
2022/12/21 08:24:50;;;;;;;23.17;16.05;;;4.50;99.90;;;;;;4955738;28;20457;-79
2022/12/21 08:27:16;;;;;;;45.30;17.85;;;4.60;99.90;;;;;;4961721;28;20078;-79
2022/12/21 08:29:43;;;;;;;41.10;18.00;;;4.60;99.90;;;;;;4956396;28;20047;-78
2022/12/21 08:32:08;;;;;;;37.85;18.83;;;4.60;99.90;;;;;;4962455;28;20886;-78
2022/12/21 08:34:34;;;;;;;44.15;21.38;;;4.60;99.90;;;;;;4960483;28;20130;-76
2022/12/21 08:37:00;;;;;;;31.85;17.60;;;4.70;99.90;;;;;;4950216;28;20043;-76
2022/12/21 08:39:26;;;;;;;51.42;20.90;;;4.70;99.90;;;;;;4961116;28;20402;-76
2022/12/21 08:41:52;;;;;;;32.38;18.75;;;4.70;99.90;;;;;;4960896;28;20034;-82
2022/12/21 08:44:18;;;;;;;33.70;22.67;;;4.70;99.90;;;;;;4961755;28;20057;-80
2022/12/21 08:46:44;;;;;;;50.75;21.30;;;4.70;99.90;;;;;;4974022;28;20373;-78
2022/12/21 08:49:09;;;;;;;47.60;21.45;;;4.80;99.90;;;;;;4962614;28;20543;-79
2022/12/21 08:51:35;;;;;;;38.05;20.55;;;4.80;99.90;;;;;;4960621;28;20087;-77
2022/12/21 08:54:01;;;;;;;35.15;21.33;;;4.80;99.90;;;;;;4963359;28;20437;-81
2022/12/21 08:56:26;;;;;;;41.75;21.27;;;4.90;99.90;;;;;;4959260;28;20375;-78
2022/12/21 08:58:52;;;;;;;39.85;22.13;;;4.90;99.90;;;;;;4955961;28;20174;-80
2022/12/21 09:01:19;;;;;;;39.15;19.90;;;4.90;99.90;;;;;;4958335;28;20046;-79
2022/12/21 09:03:45;;;;;;;45.65;22.85;;;5.00;99.90;;;;;;4959849;28;20097;-79
2022/12/21 09:06:11;;;;;;;38.08;19.33;;;5.00;99.90;;;;;;4960365;28;20047;-79
2022/12/21 09:08:37;;;;;;;36.42;19.83;;;5.00;99.90;;;;;;4960641;28;20729;-79
2022/12/21 09:11:05;;;;;;;39.00;20.25;;;5.00;99.90;;;;;;4959432;28;20038;-79
2022/12/21 09:13:30;;;;;;;35.95;21.60;;;5.00;99.90;;;;;;4951160;28;20041;-79
2022/12/21 09:15:56;;;;;;;45.53;23.85;;;5.00;99.90;;;;;;4957626;28;20047;-79
2022/12/21 09:18:28;;;;;;;33.50;19.85;;;5.00;99.90;;;;;;4957041;28;20043;-78
2022/12/21 09:20:54;;;;;;;41.72;22.50;;;5.00;99.90;;;;;;4943604;28;20506;-79
2022/12/21 09:23:20;;;;;;;39.95;22.17;;;5.10;99.90;;;;;;4961830;28;20050;-79
2022/12/21 09:25:46;;;;;;;66.10;23.67;;;5.10;99.90;;;;;;4969598;28;20141;-79
2022/12/21 09:28:12;;;;;;;45.75;20.60;;;5.10;99.90;;;;;;4953981;28;20113;-79
2022/12/21 09:30:38;;;;;;;38.95;22.42;;;5.10;99.90;;;;;;4964766;28;20920;-79
2022/12/21 09:33:03;;;;;;;35.65;18.83;;;5.10;99.90;;;;;;4959582;28;20502;-79
2022/12/21 09:35:30;;;;;;;38.97;21.60;;;5.20;99.90;;;;;;4960391;28;20048;-79
2022/12/21 09:37:56;;;;;;;39.80;20.67;;;5.20;99.90;;;;;;4951140;28;20043;-79
2022/12/21 09:40:22;;;;;;;38.28;21.90;;;5.20;99.90;;;;;;4965324;28;20070;-79
2022/12/21 09:43:05;;;;;;;42.00;20.98;;;5.20;99.90;;;;;;4973294;28;20445;-79
2022/12/21 09:45:49;;;;;;;39.35;20.00;;;5.20;99.90;;;;;;4964084;28;20260;-79
2022/12/21 09:48:23;;;;;;;42.80;20.15;;;5.20;99.90;;;;;;4974800;28;20042;-79
2022/12/21 09:50:55;;;;;;;30.55;17.50;;;5.30;99.90;;;;;;4963493;28;20069;-79
2022/12/21 09:53:41;;;;;;;47.63;18.40;;;5.30;99.90;;;;;;4964128;28;20051;-80
2022/12/21 09:56:10;;;;;;;36.65;19.02;;;5.30;99.90;;;;;;4964551;28;20179;-80
2022/12/21 09:58:43;;;;;;;30.73;17.65;;;5.30;99.90;;;;;;4963192;28;20046;-83
2022/12/21 10:01:42;;;;;;;33.20;18.52;;;5.30;99.90;;;;;;4953276;28;20105;-80
2022/12/21 10:04:33;;;;;;;58.00;15.32;;;5.30;99.90;;;;;;4962571;28;20050;-79
2022/12/21 10:07:34;;;;;;;29.30;15.43;;;5.30;99.90;;;;;;4970507;28;20065;-80
2022/12/21 10:10:23;;;;;;;27.85;13.43;;;5.30;99.90;;;;;;4953941;28;20114;-80
2022/12/21 10:13:06;;;;;;;31.95;15.63;;;5.40;99.90;;;;;;4962517;28;20489;-80
2022/12/21 10:15:53;;;;;;;32.63;16.50;;;5.40;99.90;;;;;;4962987;28;20050;-80
2022/12/21 10:18:24;;;;;;;36.70;18.40;;;5.40;99.90;;;;;;4959521;28;20510;-80
2022/12/21 10:21:13;;;;;;;32.92;16.63;;;5.50;99.90;;;;;;4959241;28;20047;-80
2022/12/21 10:23:45;;;;;;;31.13;15.55;;;5.50;99.90;;;;;;4964211;28;20051;-80
2022/12/21 10:26:15;;;;;;;31.73;17.05;;;5.50;99.90;;;;;;4980166;28;20106;-80
2022/12/21 10:28:46;;;;;;;22.13;14.65;;;5.60;99.90;;;;;;4969689;28;20117;-79
2022/12/21 10:31:31;;;;;;;44.90;18.38;;;5.60;99.90;;;;;;4964047;28;20042;-79
2022/12/21 10:33:56;;;;;;;44.80;16.58;;;5.60;99.90;;;;;;4959491;28;20059;-81
2022/12/21 10:36:34;;;;;;;34.08;17.58;;;5.60;99.90;;;;;;4953560;28;20117;-80
2022/12/21 10:39:00;;;;;;;36.58;18.75;;;5.70;99.90;;;;;;4947624;28;20050;-80
2022/12/21 10:41:31;;;;;;;53.17;20.48;;;5.70;99.90;;;;;;4960247;28;20047;-80
2022/12/21 10:43:59;;;;;;;33.97;17.20;;;5.70;99.90;;;;;;4946601;28;20039;-80
2022/12/21 10:46:30;;;;;;;37.08;18.50;;;5.70;99.90;;;;;;4952579;28;20242;-80
2022/12/21 10:49:01;;;;;;;39.87;20.70;;;5.80;99.90;;;;;;4946819;28;20082;-80
2022/12/21 10:51:35;;;;;;;42.78;19.45;;;5.80;99.90;;;;;;4954091;28;20045;-79
2022/12/21 10:54:03;;;;;;;45.92;20.92;;;5.90;99.90;;;;;;4956633;28;20351;-80
2022/12/21 10:56:33;;;;;;;41.55;22.63;;;5.80;99.90;;;;;;4971345;28;20035;-80
2022/12/21 10:59:29;;;;;;;41.97;20.83;;;5.80;99.90;;;;;;4964863;28;20043;-80
2022/12/21 11:01:55;;;;;;;46.40;21.88;;;5.90;99.90;;;;;;4956069;28;20417;-80
2022/12/21 11:04:24;;;;;;;50.75;21.42;;;5.90;99.90;;;;;;4956813;28;20494;-80
2022/12/21 11:07:03;;;;;;;58.33;22.77;;;5.90;99.90;;;;;;4961104;28;20424;-80
2022/12/21 11:09:39;;;;;;;44.05;21.95;;;6.00;99.90;;;;;;4958733;28;20071;-80
2022/12/21 11:12:15;;;;;;;49.45;23.58;;;6.00;99.90;;;;;;4951637;28;20530;-80
2022/12/21 11:14:40;;;;;;;50.08;20.58;;;6.00;99.90;;;;;;4955261;28;20553;-80
2022/12/21 11:17:26;;;;;;;48.55;22.52;;;6.00;99.90;;;;;;4962261;28;20053;-80
2022/12/21 11:20:08;;;;;;;36.28;20.40;;;6.00;99.90;;;;;;4964852;28;20043;-80
2022/12/21 11:22:37;;;;;;;44.25;21.30;;;6.00;99.90;;;;;;4962196;28;20082;-80
2022/12/21 11:25:03;;;;;;;47.28;22.85;;;6.00;99.90;;;;;;4944952;28;20035;-80
2022/12/21 11:27:32;;;;;;;48.72;21.67;;;6.00;99.90;;;;;;4957779;28;20105;-80
2022/12/21 11:30:01;;;;;;;39.67;20.13;;;6.00;99.90;;;;;;4962327;28;20060;-80
2022/12/21 11:32:29;;;;;;;34.58;18.13;;;6.00;99.90;;;;;;4964274;28;20057;-80
2022/12/21 11:34:56;;;;;;;46.63;22.55;;;6.00;99.90;;;;;;4945943;28;20047;-80
2022/12/21 11:37:36;;;;;;;36.67;19.42;;;6.00;99.90;;;;;;4964358;28;20043;-80
2022/12/21 11:40:11;;;;;;;50.65;21.83;;;6.00;99.90;;;;;;4962404;28;20524;-80
2022/12/21 11:43:00;;;;;;;41.92;20.92;;;6.00;99.90;;;;;;4961514;28;20042;-80
2022/12/21 11:45:43;;;;;;;40.13;20.13;;;6.10;99.90;;;;;;4967003;28;20090;-80
2022/12/21 11:48:46;;;;;;;35.53;19.13;;;6.10;99.90;;;;;;4962011;28;20049;-80
2022/12/21 11:51:41;;;;;;;48.17;22.90;;;6.10;99.90;;;;;;4951346;28;20043;-80
2022/12/21 11:54:57;;;;;;;37.28;20.75;;;6.10;99.90;;;;;;4932152;28;20044;-80
2022/12/21 11:57:36;;;;;;;33.67;18.40;;;6.20;99.90;;;;;;4920511;29;20055;-80
2022/12/21 12:00:14;;;;;;;43.13;20.98;;;6.20;99.90;;;;;;4962764;28;20077;-80
2022/12/21 12:03:07;;;;;;;36.78;18.52;;;6.20;99.90;;;;;;4957885;28;20046;-80
2022/12/21 12:05:44;;;;;;;40.25;19.63;;;6.20;99.90;;;;;;4962974;28;20315;-80
2022/12/21 12:08:25;;;;;;;40.08;18.63;;;6.30;99.90;;;;;;4962861;28;20085;-80
2022/12/21 12:10:50;;;;;;;40.30;19.50;;;6.30;99.90;;;;;;4962738;28;20030;-80
2022/12/21 12:13:34;;;;;;;44.25;18.60;;;6.30;99.90;;;;;;4956324;28;20382;-80
2022/12/21 12:16:27;;;;;;;48.95;19.13;;;6.30;99.90;;;;;;4951025;28;20122;-80
2022/12/21 12:19:20;;;;;;;42.20;19.58;;;6.40;99.90;;;;;;4952515;28;20158;-80
2022/12/21 12:22:11;;;;;;;44.88;20.05;;;6.40;99.90;;;;;;4963428;28;20081;-80
2022/12/21 12:24:56;;;;;;;38.38;19.75;;;6.40;99.90;;;;;;4961311;28;20058;-80
2022/12/21 12:27:41;;;;;;;37.08;20.38;;;6.50;99.90;;;;;;4962154;28;20038;-80
2022/12/21 12:30:20;;;;;;;42.22;23.70;;;6.50;99.90;;;;;;4948911;28;20047;-81
2022/12/21 12:33:01;;;;;;;45.40;23.55;;;6.50;99.90;;;;;;4964217;28;20078;-81
2022/12/21 12:35:48;;;;;;;46.72;22.55;;;6.60;99.90;;;;;;4963194;28;20109;-80
2022/12/21 12:38:24;;;;;;;39.53;22.55;;;6.60;99.90;;;;;;4953427;28;20312;-80
2022/12/21 12:41:20;;;;;;;41.13;26.83;;;6.60;99.90;;;;;;4962758;28;20042;-81
2022/12/21 12:44:23;;;;;;;53.17;24.58;;;6.60;99.90;;;;;;4960616;28;20465;-80
2022/12/21 12:46:57;;;;;;;50.33;23.83;;;6.60;99.90;;;;;;4961515;28;20355;-80
2022/12/21 12:49:44;;;;;;;43.78;24.02;;;6.70;99.90;;;;;;4951641;28;21147;-80
2022/12/21 12:52:31;;;;;;;46.25;24.25;;;6.70;99.90;;;;;;4962390;28;20104;-80
2022/12/21 12:55:18;;;;;;;51.22;25.95;;;6.70;99.90;;;;;;4962069;28;20051;-80
2022/12/21 12:57:57;;;;;;;43.13;25.88;;;6.70;99.90;;;;;;4961730;28;20126;-80
2022/12/21 13:00:23;;;;;;;42.65;21.15;;;6.70;99.90;;;;;;4967395;28;20036;-80
2022/12/21 13:03:08;;;;;;;38.55;20.63;;;6.70;99.90;;;;;;4965735;28;20046;-81
2022/12/21 13:06:12;;;;;;;33.78;20.00;;;6.80;99.90;;;;;;4956253;28;20038;-80
2022/12/21 13:09:15;;;;;;;46.15;22.48;;;6.80;99.90;;;;;;4966320;28;20113;-80
2022/12/21 13:12:00;;;;;;;;;;;6.80;99.90;;;;;;4953002;28;20073;-80
2022/12/21 13:14:42;;;;;;;41.90;24.85;;;6.90;99.90;;;;;;4954545;28;19926;-80
2022/12/21 13:17:30;;;;;;;46.40;26.27;;;6.90;99.90;;;;;;4958869;28;20453;-80